sensor_id;sensor_type;location;lat;lon;timestamp;P1;durP1;ratioP1;P2;durP2;ratioP2
20557;SDS011;10437;48.156;11.530;2023-09-08T00:01:00;8.00;;;4.75;;
20557;SDS011;10437;48.156;11.530;2023-09-08T00:03:27;8.30;;;5.03;;
20557;SDS011;10437;48.156;11.530;2023-09-08T00:05:54;7.20;;;4.60;;
20557;SDS011;10437;48.156;11.530;2023-09-08T00:08:21;9.50;;;4.75;;
20557;SDS011;10437;48.156;11.530;2023-09-08T00:10:50;8.13;;;4.38;;
20557;SDS011;10437;48.156;11.530;2023-09-08T00:13:17;8.57;;;4.82;;
20557;SDS011;10437;48.156;11.530;2023-09-08T00:15:44;8.18;;;4.60;;
20557;SDS011;10437;48.156;11.530;2023-09-08T00:18:11;8.15;;;4.72;;
20557;SDS011;10437;48.156;11.530;2023-09-08T00:20:38;8.30;;;4.90;;
20557;SDS011;10437;48.156;11.530;2023-09-08T00:23:06;8.05;;;4.68;;
20557;SDS011;10437;48.156;11.530;2023-09-08T00:25:34;7.60;;;5.10;;
20557;SDS011;10437;48.156;11.530;2023-09-08T00:28:03;7.22;;;4.80;;
20557;SDS011;10437;48.156;11.530;2023-09-08T00:30:31;8.52;;;4.38;;
20557;SDS011;10437;48.156;11.530;2023-09-08T00:32:58;7.55;;;4.63;;
20557;SDS011;10437;48.156;11.530;2023-09-08T00:35:25;8.20;;;4.57;;
20557;SDS011;10437;48.156;11.530;2023-09-08T00:37:53;8.23;;;5.10;;
20557;SDS011;10437;48.156;11.530;2023-09-08T00:40:20;8.82;;;5.32;;
20557;SDS011;10437;48.156;11.530;2023-09-08T00:42:47;6.70;;;4.50;;
20557;SDS011;10437;48.156;11.530;2023-09-08T00:45:15;9.20;;;4.80;;
20557;SDS011;10437;48.156;11.530;2023-09-08T00:47:42;8.73;;;5.47;;
20557;SDS011;10437;48.156;11.530;2023-09-08T00:50:10;6.75;;;4.53;;
20557;SDS011;10437;48.156;11.530;2023-09-08T00:52:38;11.25;;;5.70;;
20557;SDS011;10437;48.156;11.530;2023-09-08T00:55:05;10.90;;;5.50;;
20557;SDS011;10437;48.156;11.530;2023-09-08T00:57:33;8.70;;;5.07;;
20557;SDS011;10437;48.156;11.530;2023-09-08T01:00:00;7.28;;;4.57;;
20557;SDS011;10437;48.156;11.530;2023-09-08T01:02:30;8.10;;;5.10;;
20557;SDS011;10437;48.156;11.530;2023-09-08T01:04:58;8.80;;;5.63;;
20557;SDS011;10437;48.156;11.530;2023-09-08T01:07:25;7.97;;;5.47;;
20557;SDS011;10437;48.156;11.530;2023-09-08T01:09:56;9.90;;;5.18;;
20557;SDS011;10437;48.156;11.530;2023-09-08T01:12:28;11.50;;;4.82;;
20557;SDS011;10437;48.156;11.530;2023-09-08T01:14:55;10.40;;;5.25;;
20557;SDS011;10437;48.156;11.530;2023-09-08T01:17:23;8.32;;;5.57;;
20557;SDS011;10437;48.156;11.530;2023-09-08T01:19:51;9.75;;;5.25;;
20557;SDS011;10437;48.156;11.530;2023-09-08T01:22:21;12.88;;;5.20;;
20557;SDS011;10437;48.156;11.530;2023-09-08T01:25:22;9.52;;;5.00;;
20557;SDS011;10437;48.156;11.530;2023-09-08T01:27:50;10.13;;;4.85;;
20557;SDS011;10437;48.156;11.530;2023-09-08T01:30:18;8.95;;;5.18;;
20557;SDS011;10437;48.156;11.530;2023-09-08T01:32:47;9.77;;;5.20;;
20557;SDS011;10437;48.156;11.530;2023-09-08T01:35:14;8.10;;;4.80;;
20557;SDS011;10437;48.156;11.530;2023-09-08T01:37:42;8.35;;;4.88;;
20557;SDS011;10437;48.156;11.530;2023-09-08T01:40:09;8.63;;;5.03;;
20557;SDS011;10437;48.156;11.530;2023-09-08T01:42:38;8.02;;;5.00;;
20557;SDS011;10437;48.156;11.530;2023-09-08T01:45:06;9.48;;;5.00;;
20557;SDS011;10437;48.156;11.530;2023-09-08T01:47:33;9.82;;;5.25;;
20557;SDS011;10437;48.156;11.530;2023-09-08T01:50:01;8.80;;;4.97;;
20557;SDS011;10437;48.156;11.530;2023-09-08T01:52:28;9.40;;;5.13;;
20557;SDS011;10437;48.156;11.530;2023-09-08T01:54:55;11.35;;;5.40;;
20557;SDS011;10437;48.156;11.530;2023-09-08T01:57:22;8.63;;;4.82;;
20557;SDS011;10437;48.156;11.530;2023-09-08T01:59:51;9.63;;;5.47;;
20557;SDS011;10437;48.156;11.530;2023-09-08T02:02:18;7.38;;;4.90;;
20557;SDS011;10437;48.156;11.530;2023-09-08T02:04:45;10.07;;;5.50;;
20557;SDS011;10437;48.156;11.530;2023-09-08T02:07:12;6.22;;;4.93;;
20557;SDS011;10437;48.156;11.530;2023-09-08T02:09:39;13.10;;;5.25;;
20557;SDS011;10437;48.156;11.530;2023-09-08T02:12:07;8.07;;;4.88;;
20557;SDS011;10437;48.156;11.530;2023-09-08T02:14:34;9.02;;;5.18;;
20557;SDS011;10437;48.156;11.530;2023-09-08T02:17:04;8.05;;;5.03;;
20557;SDS011;10437;48.156;11.530;2023-09-08T02:19:32;9.05;;;5.57;;
20557;SDS011;10437;48.156;11.530;2023-09-08T02:21:59;7.60;;;5.30;;
20557;SDS011;10437;48.156;11.530;2023-09-08T02:24:26;8.75;;;5.18;;
20557;SDS011;10437;48.156;11.530;2023-09-08T02:26:53;9.10;;;5.60;;
20557;SDS011;10437;48.156;11.530;2023-09-08T02:29:20;10.18;;;4.97;;
20557;SDS011;10437;48.156;11.530;2023-09-08T02:31:48;10.07;;;5.55;;
20557;SDS011;10437;48.156;11.530;2023-09-08T02:34:16;8.18;;;5.18;;
20557;SDS011;10437;48.156;11.530;2023-09-08T02:36:43;8.93;;;5.63;;
20557;SDS011;10437;48.156;11.530;2023-09-08T02:39:12;7.97;;;5.38;;
20557;SDS011;10437;48.156;11.530;2023-09-08T02:41:39;10.93;;;6.20;;
20557;SDS011;10437;48.156;11.530;2023-09-08T02:44:06;10.23;;;6.03;;
20557;SDS011;10437;48.156;11.530;2023-09-08T02:46:34;10.57;;;5.57;;
20557;SDS011;10437;48.156;11.530;2023-09-08T02:49:01;9.88;;;5.82;;
20557;SDS011;10437;48.156;11.530;2023-09-08T02:51:29;12.00;;;6.03;;
20557;SDS011;10437;48.156;11.530;2023-09-08T02:53:56;11.98;;;6.55;;
20557;SDS011;10437;48.156;11.530;2023-09-08T02:56:23;10.50;;;5.82;;
20557;SDS011;10437;48.156;11.530;2023-09-08T02:58:50;16.65;;;6.03;;
20557;SDS011;10437;48.156;11.530;2023-09-08T03:01:17;10.38;;;5.97;;
20557;SDS011;10437;48.156;11.530;2023-09-08T03:03:45;9.05;;;5.07;;
20557;SDS011;10437;48.156;11.530;2023-09-08T03:06:14;9.90;;;5.85;;
20557;SDS011;10437;48.156;11.530;2023-09-08T03:08:47;10.23;;;6.60;;
20557;SDS011;10437;48.156;11.530;2023-09-08T03:11:13;10.77;;;6.40;;
20557;SDS011;10437;48.156;11.530;2023-09-08T03:13:40;8.38;;;5.70;;
20557;SDS011;10437;48.156;11.530;2023-09-08T03:16:08;8.48;;;5.32;;
20557;SDS011;10437;48.156;11.530;2023-09-08T03:18:36;9.50;;;6.15;;
20557;SDS011;10437;48.156;11.530;2023-09-08T03:21:03;8.27;;;5.25;;
20557;SDS011;10437;48.156;11.530;2023-09-08T03:23:35;9.88;;;5.50;;
20557;SDS011;10437;48.156;11.530;2023-09-08T03:26:03;8.52;;;5.50;;
20557;SDS011;10437;48.156;11.530;2023-09-08T03:28:31;9.27;;;5.68;;
20557;SDS011;10437;48.156;11.530;2023-09-08T03:30:58;10.38;;;5.68;;
20557;SDS011;10437;48.156;11.530;2023-09-08T03:33:26;9.23;;;5.95;;
20557;SDS011;10437;48.156;11.530;2023-09-08T03:35:53;8.57;;;5.30;;
20557;SDS011;10437;48.156;11.530;2023-09-08T03:38:20;9.45;;;5.78;;
20557;SDS011;10437;48.156;11.530;2023-09-08T03:40:50;10.35;;;5.60;;
20557;SDS011;10437;48.156;11.530;2023-09-08T03:43:18;7.90;;;5.43;;
20557;SDS011;10437;48.156;11.530;2023-09-08T03:45:46;9.98;;;6.35;;
20557;SDS011;10437;48.156;11.530;2023-09-08T03:48:13;8.65;;;5.35;;
20557;SDS011;10437;48.156;11.530;2023-09-08T03:50:40;9.35;;;5.60;;
20557;SDS011;10437;48.156;11.530;2023-09-08T03:53:10;9.45;;;5.65;;
20557;SDS011;10437;48.156;11.530;2023-09-08T03:55:37;10.85;;;5.90;;
20557;SDS011;10437;48.156;11.530;2023-09-08T03:58:04;11.05;;;5.78;;
20557;SDS011;10437;48.156;11.530;2023-09-08T04:00:33;10.93;;;5.82;;
20557;SDS011;10437;48.156;11.530;2023-09-08T04:03:00;13.98;;;6.45;;
20557;SDS011;10437;48.156;11.530;2023-09-08T04:05:27;9.32;;;5.57;;
20557;SDS011;10437;48.156;11.530;2023-09-08T04:07:54;10.70;;;5.97;;
20557;SDS011;10437;48.156;11.530;2023-09-08T04:10:21;10.10;;;5.75;;
20557;SDS011;10437;48.156;11.530;2023-09-08T04:12:48;9.90;;;6.10;;
20557;SDS011;10437;48.156;11.530;2023-09-08T04:15:16;9.90;;;5.57;;
20557;SDS011;10437;48.156;11.530;2023-09-08T04:17:44;10.98;;;5.93;;
20557;SDS011;10437;48.156;11.530;2023-09-08T04:20:11;10.02;;;5.90;;
20557;SDS011;10437;48.156;11.530;2023-09-08T04:22:40;10.98;;;5.65;;
20557;SDS011;10437;48.156;11.530;2023-09-08T04:25:08;10.57;;;6.30;;
20557;SDS011;10437;48.156;11.530;2023-09-08T04:27:35;10.60;;;5.80;;
20557;SDS011;10437;48.156;11.530;2023-09-08T04:30:03;8.48;;;6.05;;
20557;SDS011;10437;48.156;11.530;2023-09-08T04:32:30;9.80;;;5.72;;
20557;SDS011;10437;48.156;11.530;2023-09-08T04:34:58;10.65;;;6.47;;
20557;SDS011;10437;48.156;11.530;2023-09-08T04:37:25;9.70;;;6.10;;
20557;SDS011;10437;48.156;11.530;2023-09-08T04:39:52;9.82;;;6.22;;
20557;SDS011;10437;48.156;11.530;2023-09-08T04:42:19;11.18;;;6.22;;
20557;SDS011;10437;48.156;11.530;2023-09-08T04:44:48;10.20;;;5.47;;
20557;SDS011;10437;48.156;11.530;2023-09-08T04:47:15;11.00;;;5.90;;
20557;SDS011;10437;48.156;11.530;2023-09-08T04:49:42;10.93;;;5.97;;
20557;SDS011;10437;48.156;11.530;2023-09-08T04:52:10;11.98;;;6.43;;
20557;SDS011;10437;48.156;11.530;2023-09-08T04:54:37;12.43;;;6.40;;
20557;SDS011;10437;48.156;11.530;2023-09-08T04:57:04;9.27;;;5.68;;
20557;SDS011;10437;48.156;11.530;2023-09-08T04:59:32;11.23;;;6.22;;
20557;SDS011;10437;48.156;11.530;2023-09-08T05:02:01;7.43;;;5.72;;
20557;SDS011;10437;48.156;11.530;2023-09-08T05:04:29;11.43;;;5.93;;
20557;SDS011;10437;48.156;11.530;2023-09-08T05:06:56;10.63;;;5.90;;
20557;SDS011;10437;48.156;11.530;2023-09-08T05:09:24;10.43;;;5.40;;
20557;SDS011;10437;48.156;11.530;2023-09-08T05:11:51;12.85;;;6.38;;
20557;SDS011;10437;48.156;11.530;2023-09-08T05:14:18;13.18;;;5.88;;
20557;SDS011;10437;48.156;11.530;2023-09-08T05:16:45;9.15;;;6.00;;
20557;SDS011;10437;48.156;11.530;2023-09-08T05:19:14;11.60;;;6.80;;
20557;SDS011;10437;48.156;11.530;2023-09-08T05:21:42;9.77;;;6.25;;
20557;SDS011;10437;48.156;11.530;2023-09-08T05:24:09;10.15;;;6.43;;
20557;SDS011;10437;48.156;11.530;2023-09-08T05:26:37;13.60;;;6.22;;
20557;SDS011;10437;48.156;11.530;2023-09-08T05:29:04;11.52;;;6.43;;
20557;SDS011;10437;48.156;11.530;2023-09-08T05:31:32;12.85;;;6.30;;
20557;SDS011;10437;48.156;11.530;2023-09-08T05:33:59;11.82;;;6.28;;
20557;SDS011;10437;48.156;11.530;2023-09-08T05:36:26;10.27;;;6.35;;
20557;SDS011;10437;48.156;11.530;2023-09-08T05:38:54;9.25;;;6.15;;
20557;SDS011;10437;48.156;11.530;2023-09-08T05:41:21;11.07;;;6.72;;
20557;SDS011;10437;48.156;11.530;2023-09-08T05:43:50;11.57;;;6.45;;
20557;SDS011;10437;48.156;11.530;2023-09-08T05:46:16;12.52;;;7.07;;
20557;SDS011;10437;48.156;11.530;2023-09-08T05:48:44;18.45;;;7.10;;
20557;SDS011;10437;48.156;11.530;2023-09-08T05:51:12;10.80;;;6.53;;
20557;SDS011;10437;48.156;11.530;2023-09-08T05:53:39;12.52;;;6.80;;
20557;SDS011;10437;48.156;11.530;2023-09-08T05:56:06;13.95;;;6.00;;
20557;SDS011;10437;48.156;11.530;2023-09-08T05:58:33;15.00;;;7.20;;
20557;SDS011;10437;48.156;11.530;2023-09-08T06:01:02;14.90;;;7.47;;
20557;SDS011;10437;48.156;11.530;2023-09-08T06:03:30;19.15;;;8.00;;
20557;SDS011;10437;48.156;11.530;2023-09-08T06:05:57;16.05;;;7.50;;
20557;SDS011;10437;48.156;11.530;2023-09-08T06:08:24;18.25;;;7.85;;
20557;SDS011;10437;48.156;11.530;2023-09-08T06:10:51;25.15;;;9.02;;
20557;SDS011;10437;48.156;11.530;2023-09-08T06:13:18;14.52;;;7.72;;
20557;SDS011;10437;48.156;11.530;2023-09-08T06:15:45;17.15;;;8.23;;
20557;SDS011;10437;48.156;11.530;2023-09-08T06:18:14;11.60;;;7.68;;
20557;SDS011;10437;48.156;11.530;2023-09-08T06:20:44;14.68;;;8.20;;
20557;SDS011;10437;48.156;11.530;2023-09-08T06:23:11;12.65;;;8.55;;
20557;SDS011;10437;48.156;11.530;2023-09-08T06:25:39;15.52;;;7.93;;
20557;SDS011;10437;48.156;11.530;2023-09-08T06:28:06;12.82;;;7.93;;
20557;SDS011;10437;48.156;11.530;2023-09-08T06:30:33;17.98;;;9.00;;
20557;SDS011;10437;48.156;11.530;2023-09-08T06:33:00;86.38;;;13.07;;
20557;SDS011;10437;48.156;11.530;2023-09-08T06:35:29;44.70;;;10.98;;
20557;SDS011;10437;48.156;11.530;2023-09-08T06:37:56;20.65;;;8.40;;
20557;SDS011;10437;48.156;11.530;2023-09-08T06:40:23;17.05;;;8.55;;
20557;SDS011;10437;48.156;11.530;2023-09-08T06:42:51;17.42;;;7.50;;
20557;SDS011;10437;48.156;11.530;2023-09-08T06:45:18;16.77;;;7.68;;
20557;SDS011;10437;48.156;11.530;2023-09-08T06:47:45;17.73;;;8.40;;
20557;SDS011;10437;48.156;11.530;2023-09-08T06:50:14;25.73;;;8.20;;
20557;SDS011;10437;48.156;11.530;2023-09-08T06:52:42;25.92;;;7.57;;
20557;SDS011;10437;48.156;11.530;2023-09-08T06:55:09;18.15;;;8.00;;
20557;SDS011;10437;48.156;11.530;2023-09-08T06:57:38;16.52;;;7.13;;
20557;SDS011;10437;48.156;11.530;2023-09-08T07:00:06;25.88;;;8.05;;
20557;SDS011;10437;48.156;11.530;2023-09-08T07:02:33;14.20;;;7.47;;
20557;SDS011;10437;48.156;11.530;2023-09-08T07:05:00;15.82;;;7.07;;
20557;SDS011;10437;48.156;11.530;2023-09-08T07:07:32;28.13;;;7.63;;
20557;SDS011;10437;48.156;11.530;2023-09-08T07:10:01;21.27;;;7.00;;
20557;SDS011;10437;48.156;11.530;2023-09-08T07:12:29;15.63;;;6.88;;
20557;SDS011;10437;48.156;11.530;2023-09-08T07:14:56;11.43;;;6.78;;
20557;SDS011;10437;48.156;11.530;2023-09-08T07:17:24;15.15;;;6.47;;
20557;SDS011;10437;48.156;11.530;2023-09-08T07:19:52;13.07;;;6.20;;
20557;SDS011;10437;48.156;11.530;2023-09-08T07:22:19;17.17;;;6.57;;
20557;SDS011;10437;48.156;11.530;2023-09-08T07:24:46;11.90;;;6.70;;
20557;SDS011;10437;48.156;11.530;2023-09-08T07:27:14;11.98;;;6.40;;
20557;SDS011;10437;48.156;11.530;2023-09-08T07:29:41;9.90;;;7.03;;
20557;SDS011;10437;48.156;11.530;2023-09-08T07:32:08;12.32;;;6.53;;
20557;SDS011;10437;48.156;11.530;2023-09-08T07:34:35;16.10;;;6.50;;
20557;SDS011;10437;48.156;11.530;2023-09-08T07:37:03;10.43;;;6.38;;
20557;SDS011;10437;48.156;11.530;2023-09-08T07:39:30;13.32;;;6.20;;
20557;SDS011;10437;48.156;11.530;2023-09-08T07:41:57;9.63;;;6.13;;
20557;SDS011;10437;48.156;11.530;2023-09-08T07:44:26;14.98;;;6.65;;
20557;SDS011;10437;48.156;11.530;2023-09-08T07:46:53;10.05;;;5.80;;
20557;SDS011;10437;48.156;11.530;2023-09-08T07:49:21;14.43;;;6.47;;
20557;SDS011;10437;48.156;11.530;2023-09-08T07:51:49;13.27;;;7.43;;
20557;SDS011;10437;48.156;11.530;2023-09-08T07:54:16;11.07;;;6.53;;
20557;SDS011;10437;48.156;11.530;2023-09-08T07:56:43;8.75;;;6.18;;
20557;SDS011;10437;48.156;11.530;2023-09-08T07:59:10;17.70;;;6.47;;
20557;SDS011;10437;48.156;11.530;2023-09-08T08:01:38;14.63;;;6.75;;
20557;SDS011;10437;48.156;11.530;2023-09-08T08:04:05;10.95;;;7.03;;
20557;SDS011;10437;48.156;11.530;2023-09-08T08:06:32;11.60;;;6.50;;
20557;SDS011;10437;48.156;11.530;2023-09-08T08:09:00;10.63;;;7.05;;
20557;SDS011;10437;48.156;11.530;2023-09-08T08:11:27;11.10;;;7.00;;
20557;SDS011;10437;48.156;11.530;2023-09-08T08:13:54;11.13;;;7.13;;
20557;SDS011;10437;48.156;11.530;2023-09-08T08:16:22;13.15;;;7.32;;
20557;SDS011;10437;48.156;11.530;2023-09-08T08:18:51;12.18;;;7.25;;
20557;SDS011;10437;48.156;11.530;2023-09-08T08:21:18;8.77;;;6.65;;
20557;SDS011;10437;48.156;11.530;2023-09-08T08:23:45;10.85;;;6.22;;
20557;SDS011;10437;48.156;11.530;2023-09-08T08:26:12;9.52;;;6.82;;
20557;SDS011;10437;48.156;11.530;2023-09-08T08:28:39;9.38;;;6.68;;
20557;SDS011;10437;48.156;11.530;2023-09-08T08:31:06;8.77;;;7.00;;
20557;SDS011;10437;48.156;11.530;2023-09-08T08:33:33;9.32;;;6.15;;
20557;SDS011;10437;48.156;11.530;2023-09-08T08:36:02;18.55;;;7.55;;
20557;SDS011;10437;48.156;11.530;2023-09-08T08:38:29;12.32;;;6.95;;
20557;SDS011;10437;48.156;11.530;2023-09-08T08:41:01;14.00;;;6.53;;
20557;SDS011;10437;48.156;11.530;2023-09-08T08:43:29;14.30;;;6.93;;
20557;SDS011;10437;48.156;11.530;2023-09-08T08:45:57;8.18;;;6.10;;
20557;SDS011;10437;48.156;11.530;2023-09-08T08:48:25;9.65;;;7.10;;
20557;SDS011;10437;48.156;11.530;2023-09-08T08:50:55;11.50;;;6.85;;
20557;SDS011;10437;48.156;11.530;2023-09-08T08:53:24;13.52;;;6.75;;
20557;SDS011;10437;48.156;11.530;2023-09-08T08:55:52;13.63;;;7.20;;
20557;SDS011;10437;48.156;11.530;2023-09-08T08:58:24;11.20;;;6.43;;
20557;SDS011;10437;48.156;11.530;2023-09-08T09:00:52;10.63;;;6.28;;
20557;SDS011;10437;48.156;11.530;2023-09-08T09:03:22;8.45;;;6.45;;
20557;SDS011;10437;48.156;11.530;2023-09-08T09:05:52;11.85;;;7.43;;
20557;SDS011;10437;48.156;11.530;2023-09-08T09:08:19;9.55;;;6.90;;
20557;SDS011;10437;48.156;11.530;2023-09-08T09:10:50;10.77;;;6.50;;
20557;SDS011;10437;48.156;11.530;2023-09-08T09:13:17;11.93;;;7.75;;
20557;SDS011;10437;48.156;11.530;2023-09-08T09:15:44;11.57;;;7.07;;
20557;SDS011;10437;48.156;11.530;2023-09-08T09:18:11;10.13;;;6.15;;
20557;SDS011;10437;48.156;11.530;2023-09-08T09:20:39;11.73;;;6.93;;
20557;SDS011;10437;48.156;11.530;2023-09-08T09:23:06;13.90;;;7.22;;
20557;SDS011;10437;48.156;11.530;2023-09-08T09:25:34;9.68;;;6.72;;
20557;SDS011;10437;48.156;11.530;2023-09-08T09:28:04;15.02;;;7.03;;
20557;SDS011;10437;48.156;11.530;2023-09-08T09:30:45;9.13;;;6.63;;
20557;SDS011;10437;48.156;11.530;2023-09-08T09:33:13;16.30;;;7.18;;
20557;SDS011;10437;48.156;11.530;2023-09-08T09:35:41;11.30;;;6.93;;
20557;SDS011;10437;48.156;11.530;2023-09-08T09:38:08;11.50;;;7.25;;
20557;SDS011;10437;48.156;11.530;2023-09-08T09:40:36;9.52;;;6.72;;
20557;SDS011;10437;48.156;11.530;2023-09-08T09:43:05;11.98;;;7.22;;
20557;SDS011;10437;48.156;11.530;2023-09-08T09:45:33;15.45;;;7.25;;
20557;SDS011;10437;48.156;11.530;2023-09-08T09:48:01;12.40;;;6.97;;
20557;SDS011;10437;48.156;11.530;2023-09-08T09:50:29;11.55;;;6.50;;
20557;SDS011;10437;48.156;11.530;2023-09-08T09:52:58;12.93;;;6.25;;
20557;SDS011;10437;48.156;11.530;2023-09-08T09:55:26;16.80;;;5.90;;
20557;SDS011;10437;48.156;11.530;2023-09-08T09:57:55;17.55;;;6.22;;
20557;SDS011;10437;48.156;11.530;2023-09-08T10:00:25;21.70;;;6.47;;
20557;SDS011;10437;48.156;11.530;2023-09-08T10:02:53;13.82;;;5.97;;
20557;SDS011;10437;48.156;11.530;2023-09-08T10:05:21;7.63;;;5.53;;
20557;SDS011;10437;48.156;11.530;2023-09-08T10:07:48;10.30;;;5.20;;
20557;SDS011;10437;48.156;11.530;2023-09-08T10:10:16;10.35;;;5.63;;
20557;SDS011;10437;48.156;11.530;2023-09-08T10:12:43;15.30;;;5.93;;
20557;SDS011;10437;48.156;11.530;2023-09-08T10:15:11;15.20;;;5.60;;
20557;SDS011;10437;48.156;11.530;2023-09-08T10:17:41;9.07;;;5.72;;
20557;SDS011;10437;48.156;11.530;2023-09-08T10:20:11;9.07;;;6.20;;
20557;SDS011;10437;48.156;11.530;2023-09-08T10:22:41;11.18;;;6.55;;
20557;SDS011;10437;48.156;11.530;2023-09-08T10:25:09;8.82;;;5.50;;
20557;SDS011;10437;48.156;11.530;2023-09-08T10:27:38;11.35;;;6.40;;
20557;SDS011;10437;48.156;11.530;2023-09-08T10:30:05;8.57;;;5.78;;
20557;SDS011;10437;48.156;11.530;2023-09-08T10:32:33;9.23;;;5.63;;
20557;SDS011;10437;48.156;11.530;2023-09-08T10:35:03;16.70;;;6.13;;
20557;SDS011;10437;48.156;11.530;2023-09-08T10:37:32;10.18;;;5.57;;
20557;SDS011;10437;48.156;11.530;2023-09-08T10:42:47;18.20;;;5.22;;
20557;SDS011;10437;48.156;11.530;2023-09-08T10:45:16;22.50;;;5.78;;
20557;SDS011;10437;48.156;11.530;2023-09-08T10:47:56;15.27;;;5.93;;
20557;SDS011;10437;48.156;11.530;2023-09-08T10:50:29;8.48;;;4.82;;
20557;SDS011;10437;48.156;11.530;2023-09-08T10:53:05;10.50;;;5.50;;
20557;SDS011;10437;48.156;11.530;2023-09-08T10:55:36;9.25;;;5.38;;
20557;SDS011;10437;48.156;11.530;2023-09-08T10:58:03;10.98;;;5.50;;
20557;SDS011;10437;48.156;11.530;2023-09-08T11:00:42;10.90;;;5.53;;
20557;SDS011;10437;48.156;11.530;2023-09-08T11:03:10;10.52;;;5.05;;
20557;SDS011;10437;48.156;11.530;2023-09-08T11:05:39;11.75;;;5.65;;
20557;SDS011;10437;48.156;11.530;2023-09-08T11:08:07;9.55;;;5.38;;
20557;SDS011;10437;48.156;11.530;2023-09-08T11:10:34;10.25;;;5.95;;
20557;SDS011;10437;48.156;11.530;2023-09-08T11:13:03;8.57;;;5.25;;
20557;SDS011;10437;48.156;11.530;2023-09-08T11:15:30;7.30;;;5.43;;
20557;SDS011;10437;48.156;11.530;2023-09-08T11:18:02;6.78;;;5.53;;
20557;SDS011;10437;48.156;11.530;2023-09-08T11:20:32;10.95;;;5.70;;
20557;SDS011;10437;48.156;11.530;2023-09-08T11:23:01;10.25;;;6.10;;
20557;SDS011;10437;48.156;11.530;2023-09-08T11:25:30;10.63;;;5.95;;
20557;SDS011;10437;48.156;11.530;2023-09-08T11:27:58;12.52;;;5.47;;
20557;SDS011;10437;48.156;11.530;2023-09-08T11:30:26;9.23;;;5.55;;
20557;SDS011;10437;48.156;11.530;2023-09-08T11:32:53;7.97;;;5.68;;
20557;SDS011;10437;48.156;11.530;2023-09-08T11:35:23;7.38;;;5.20;;
20557;SDS011;10437;48.156;11.530;2023-09-08T11:37:53;9.35;;;5.82;;
20557;SDS011;10437;48.156;11.530;2023-09-08T11:40:28;6.93;;;5.70;;
20557;SDS011;10437;48.156;11.530;2023-09-08T11:42:57;9.30;;;5.78;;
20557;SDS011;10437;48.156;11.530;2023-09-08T11:45:25;10.38;;;6.18;;
20557;SDS011;10437;48.156;11.530;2023-09-08T11:47:53;8.93;;;5.82;;
20557;SDS011;10437;48.156;11.530;2023-09-08T11:50:20;8.32;;;5.95;;
20557;SDS011;10437;48.156;11.530;2023-09-08T11:52:49;9.65;;;6.10;;
20557;SDS011;10437;48.156;11.530;2023-09-08T11:55:18;9.13;;;6.38;;
20557;SDS011;10437;48.156;11.530;2023-09-08T11:57:47;10.90;;;6.13;;
20557;SDS011;10437;48.156;11.530;2023-09-08T12:00:16;22.48;;;7.50;;
20557;SDS011;10437;48.156;11.530;2023-09-08T12:02:46;8.00;;;5.78;;
20557;SDS011;10437;48.156;11.530;2023-09-08T12:05:13;13.50;;;6.35;;
20557;SDS011;10437;48.156;11.530;2023-09-08T12:07:47;12.63;;;5.93;;
20557;SDS011;10437;48.156;11.530;2023-09-08T12:10:14;9.85;;;5.72;;
20557;SDS011;10437;48.156;11.530;2023-09-08T12:12:45;10.50;;;5.85;;
20557;SDS011;10437;48.156;11.530;2023-09-08T12:18:00;12.68;;;5.93;;
20557;SDS011;10437;48.156;11.530;2023-09-08T12:20:28;11.70;;;6.50;;
20557;SDS011;10437;48.156;11.530;2023-09-08T12:22:57;8.93;;;5.82;;
20557;SDS011;10437;48.156;11.530;2023-09-08T12:25:25;13.25;;;6.03;;
20557;SDS011;10437;48.156;11.530;2023-09-08T12:27:54;7.93;;;6.35;;
20557;SDS011;10437;48.156;11.530;2023-09-08T12:30:22;10.98;;;5.72;;
20557;SDS011;10437;48.156;11.530;2023-09-08T12:32:55;6.85;;;5.30;;
20557;SDS011;10437;48.156;11.530;2023-09-08T12:35:23;6.35;;;5.50;;
20557;SDS011;10437;48.156;11.530;2023-09-08T12:37:54;10.65;;;6.03;;
20557;SDS011;10437;48.156;11.530;2023-09-08T12:40:24;7.43;;;5.47;;
20557;SDS011;10437;48.156;11.530;2023-09-08T12:42:51;13.43;;;5.65;;
20557;SDS011;10437;48.156;11.530;2023-09-08T12:45:20;10.07;;;5.55;;
20557;SDS011;10437;48.156;11.530;2023-09-08T12:47:48;8.50;;;5.72;;
20557;SDS011;10437;48.156;11.530;2023-09-08T12:50:15;9.52;;;5.47;;
20557;SDS011;10437;48.156;11.530;2023-09-08T12:52:42;6.80;;;5.30;;
20557;SDS011;10437;48.156;11.530;2023-09-08T12:55:09;6.43;;;4.80;;
20557;SDS011;10437;48.156;11.530;2023-09-08T12:57:37;12.00;;;5.30;;
20557;SDS011;10437;48.156;11.530;2023-09-08T13:00:04;7.47;;;5.38;;
20557;SDS011;10437;48.156;11.530;2023-09-08T13:02:34;7.85;;;4.90;;
20557;SDS011;10437;48.156;11.530;2023-09-08T13:05:01;10.02;;;5.40;;
20557;SDS011;10437;48.156;11.530;2023-09-08T13:07:28;6.90;;;5.25;;
20557;SDS011;10437;48.156;11.530;2023-09-08T13:09:55;10.30;;;5.53;;
20557;SDS011;10437;48.156;11.530;2023-09-08T13:12:23;7.60;;;5.20;;
20557;SDS011;10437;48.156;11.530;2023-09-08T13:14:50;7.85;;;5.60;;
20557;SDS011;10437;48.156;11.530;2023-09-08T13:17:17;7.07;;;5.57;;
20557;SDS011;10437;48.156;11.530;2023-09-08T13:19:46;10.23;;;5.10;;
20557;SDS011;10437;48.156;11.530;2023-09-08T13:22:13;8.75;;;5.80;;
20557;SDS011;10437;48.156;11.530;2023-09-08T13:24:41;8.50;;;5.50;;
20557;SDS011;10437;48.156;11.530;2023-09-08T13:27:08;7.32;;;5.10;;
20557;SDS011;10437;48.156;11.530;2023-09-08T13:29:36;7.50;;;5.55;;
20557;SDS011;10437;48.156;11.530;2023-09-08T13:32:03;7.35;;;5.43;;
20557;SDS011;10437;48.156;11.530;2023-09-08T13:34:31;7.95;;;5.50;;
20557;SDS011;10437;48.156;11.530;2023-09-08T13:37:00;7.65;;;5.68;;
20557;SDS011;10437;48.156;11.530;2023-09-08T13:39:28;11.15;;;5.78;;
20557;SDS011;10437;48.156;11.530;2023-09-08T13:41:55;8.20;;;5.78;;
20557;SDS011;10437;48.156;11.530;2023-09-08T13:44:25;6.82;;;5.07;;
20557;SDS011;10437;48.156;11.530;2023-09-08T13:46:52;7.45;;;5.45;;
20557;SDS011;10437;48.156;11.530;2023-09-08T13:49:20;8.43;;;5.32;;
20557;SDS011;10437;48.156;11.530;2023-09-08T13:51:48;9.73;;;5.68;;
20557;SDS011;10437;48.156;11.530;2023-09-08T13:54:18;9.25;;;5.85;;
20557;SDS011;10437;48.156;11.530;2023-09-08T13:56:45;7.63;;;5.22;;
20557;SDS011;10437;48.156;11.530;2023-09-08T13:59:12;7.50;;;5.80;;
20557;SDS011;10437;48.156;11.530;2023-09-08T14:01:39;8.43;;;5.72;;
20557;SDS011;10437;48.156;11.530;2023-09-08T14:04:06;7.55;;;5.68;;
20557;SDS011;10437;48.156;11.530;2023-09-08T14:06:33;8.95;;;5.72;;
20557;SDS011;10437;48.156;11.530;2023-09-08T14:09:01;8.20;;;5.75;;
20557;SDS011;10437;48.156;11.530;2023-09-08T14:11:29;11.20;;;5.50;;
20557;SDS011;10437;48.156;11.530;2023-09-08T14:13:56;8.05;;;5.63;;
20557;SDS011;10437;48.156;11.530;2023-09-08T14:16:23;7.10;;;5.57;;
20557;SDS011;10437;48.156;11.530;2023-09-08T14:18:50;7.30;;;5.43;;
20557;SDS011;10437;48.156;11.530;2023-09-08T14:21:18;7.80;;;5.43;;
20557;SDS011;10437;48.156;11.530;2023-09-08T14:23:45;11.30;;;6.13;;
20557;SDS011;10437;48.156;11.530;2023-09-08T14:26:12;8.15;;;5.60;;
20557;SDS011;10437;48.156;11.530;2023-09-08T14:28:41;7.60;;;5.88;;
20557;SDS011;10437;48.156;11.530;2023-09-08T14:31:08;9.40;;;5.55;;
20557;SDS011;10437;48.156;11.530;2023-09-08T14:33:35;10.82;;;5.70;;
20557;SDS011;10437;48.156;11.530;2023-09-08T14:36:02;6.60;;;5.18;;
20557;SDS011;10437;48.156;11.530;2023-09-08T14:38:29;11.60;;;5.53;;